sensor_id;sensor_type;location;lat;lon;timestamp;pressure;altitude;pressure_sealevel;temperature;humidity
10796;BME280;5450;42.994;23.372;2024-03-06T00:00:59;96195.59;;;7.15;100.00
10796;BME280;5450;42.994;23.372;2024-03-06T00:03:25;96190.97;;;7.09;100.00
10796;BME280;5450;42.994;23.372;2024-03-06T00:05:52;96195.06;;;7.12;100.00
10796;BME280;5450;42.994;23.372;2024-03-06T00:08:19;96205.38;;;7.13;100.00
10796;BME280;5450;42.994;23.372;2024-03-06T00:10:45;96197.25;;;7.16;100.00
10796;BME280;5450;42.994;23.372;2024-03-06T00:13:14;96194.69;;;7.24;100.00
10796;BME280;5450;42.994;23.372;2024-03-06T00:15:41;96190.81;;;7.28;100.00
10796;BME280;5450;42.994;23.372;2024-03-06T00:18:07;96190.19;;;7.34;100.00
10796;BME280;5450;42.994;23.372;2024-03-06T00:20:35;96187.00;;;7.40;100.00
10796;BME280;5450;42.994;23.372;2024-03-06T00:23:02;96178.84;;;7.43;100.00
10796;BME280;5450;42.994;23.372;2024-03-06T00:25:28;96189.69;;;7.31;100.00
10796;BME280;5450;42.994;23.372;2024-03-06T00:27:55;96180.28;;;7.20;100.00
10796;BME280;5450;42.994;23.372;2024-03-06T00:30:23;96179.03;;;7.24;100.00
10796;BME280;5450;42.994;23.372;2024-03-06T00:32:50;96176.91;;;7.28;100.00
10796;BME280;5450;42.994;23.372;2024-03-06T00:35:16;96184.63;;;7.29;100.00
10796;BME280;5450;42.994;23.372;2024-03-06T00:37:44;96185.59;;;7.28;100.00
10796;BME280;5450;42.994;23.372;2024-03-06T00:40:11;96180.69;;;7.25;100.00
10796;BME280;5450;42.994;23.372;2024-03-06T00:42:38;96183.97;;;7.27;100.00
10796;BME280;5450;42.994;23.372;2024-03-06T00:45:06;96187.53;;;7.26;100.00
10796;BME280;5450;42.994;23.372;2024-03-06T00:47:34;96187.25;;;7.29;100.00
10796;BME280;5450;42.994;23.372;2024-03-06T00:50:01;96194.53;;;7.26;100.00
10796;BME280;5450;42.994;23.372;2024-03-06T00:52:28;96195.53;;;7.25;100.00
10796;BME280;5450;42.994;23.372;2024-03-06T00:54:54;96197.84;;;7.10;100.00
10796;BME280;5450;42.994;23.372;2024-03-06T00:57:21;96194.09;;;6.95;100.00
10796;BME280;5450;42.994;23.372;2024-03-06T00:59:49;96188.31;;;6.74;100.00
10796;BME280;5450;42.994;23.372;2024-03-06T01:02:16;96196.13;;;6.74;100.00
10796;BME280;5450;42.994;23.372;2024-03-06T01:04:47;96191.22;;;6.71;100.00
10796;BME280;5450;42.994;23.372;2024-03-06T01:07:13;96193.09;;;6.78;100.00
10796;BME280;5450;42.994;23.372;2024-03-06T01:09:40;96187.28;;;6.84;100.00
10796;BME280;5450;42.994;23.372;2024-03-06T01:12:07;96190.72;;;6.85;100.00
10796;BME280;5450;42.994;23.372;2024-03-06T01:14:33;96183.88;;;6.84;100.00
10796;BME280;5450;42.994;23.372;2024-03-06T01:17:00;96185.81;;;6.82;100.00
10796;BME280;5450;42.994;23.372;2024-03-06T01:19:27;96189.75;;;6.86;100.00
10796;BME280;5450;42.994;23.372;2024-03-06T01:21:55;96184.81;;;6.83;100.00
10796;BME280;5450;42.994;23.372;2024-03-06T01:24:22;96188.09;;;6.85;100.00
10796;BME280;5450;42.994;23.372;2024-03-06T01:26:48;96193.63;;;6.82;100.00
10796;BME280;5450;42.994;23.372;2024-03-06T01:29:15;96192.56;;;6.75;100.00
10796;BME280;5450;42.994;23.372;2024-03-06T01:31:43;96195.78;;;6.69;100.00
10796;BME280;5450;42.994;23.372;2024-03-06T01:34:11;96191.78;;;6.65;100.00
10796;BME280;5450;42.994;23.372;2024-03-06T01:36:38;96202.53;;;6.62;100.00
10796;BME280;5450;42.994;23.372;2024-03-06T01:39:06;96204.03;;;6.64;100.00
10796;BME280;5450;42.994;23.372;2024-03-06T01:41:33;96214.91;;;6.60;100.00
10796;BME280;5450;42.994;23.372;2024-03-06T01:43:59;96217.81;;;6.57;100.00
10796;BME280;5450;42.994;23.372;2024-03-06T01:46:26;96222.34;;;6.55;100.00
10796;BME280;5450;42.994;23.372;2024-03-06T01:48:53;96218.47;;;6.59;100.00
10796;BME280;5450;42.994;23.372;2024-03-06T01:51:19;96222.50;;;6.53;100.00
10796;BME280;5450;42.994;23.372;2024-03-06T01:53:46;96220.16;;;6.50;100.00
10796;BME280;5450;42.994;23.372;2024-03-06T01:56:15;96218.78;;;6.56;100.00
10796;BME280;5450;42.994;23.372;2024-03-06T01:58:42;96211.31;;;6.61;100.00
10796;BME280;5450;42.994;23.372;2024-03-06T02:01:11;96208.44;;;6.64;100.00
10796;BME280;5450;42.994;23.372;2024-03-06T02:03:38;96208.16;;;6.67;100.00
10796;BME280;5450;42.994;23.372;2024-03-06T02:06:06;96218.78;;;6.56;100.00
10796;BME280;5450;42.994;23.372;2024-03-06T02:08:33;96215.50;;;6.54;100.00
10796;BME280;5450;42.994;23.372;2024-03-06T02:11:00;96221.53;;;6.54;100.00
10796;BME280;5450;42.994;23.372;2024-03-06T02:13:29;96215.78;;;6.51;100.00
10796;BME280;5450;42.994;23.372;2024-03-06T02:15:55;96220.59;;;6.46;100.00
10796;BME280;5450;42.994;23.372;2024-03-06T02:18:22;96222.41;;;6.45;100.00
10796;BME280;5450;42.994;23.372;2024-03-06T02:20:50;96221.09;;;6.32;100.00
10796;BME280;5450;42.994;23.372;2024-03-06T02:23:17;96229.88;;;6.31;100.00
10796;BME280;5450;42.994;23.372;2024-03-06T02:25:46;96232.34;;;6.32;100.00
10796;BME280;5450;42.994;23.372;2024-03-06T02:28:13;96225.44;;;6.41;100.00
10796;BME280;5450;42.994;23.372;2024-03-06T02:30:40;96218.00;;;6.46;100.00
10796;BME280;5450;42.994;23.372;2024-03-06T02:33:06;96217.72;;;6.49;100.00
10796;BME280;5450;42.994;23.372;2024-03-06T02:35:33;96218.38;;;6.51;100.00
10796;BME280;5450;42.994;23.372;2024-03-06T02:38:02;96218.78;;;6.56;100.00
10796;BME280;5450;42.994;23.372;2024-03-06T02:40:30;96225.63;;;6.57;100.00
10796;BME280;5450;42.994;23.372;2024-03-06T02:42:56;96234.44;;;6.56;100.00
10796;BME280;5450;42.994;23.372;2024-03-06T02:45:23;96239.13;;;6.52;100.00
10796;BME280;5450;42.994;23.372;2024-03-06T02:47:50;96239.94;;;6.53;100.00
10796;BME280;5450;42.994;23.372;2024-03-06T02:50:16;96237.50;;;6.51;100.00
10796;BME280;5450;42.994;23.372;2024-03-06T02:52:43;96245.44;;;6.50;100.00
10796;BME280;5450;42.994;23.372;2024-03-06T02:55:11;96247.38;;;6.48;100.00
10796;BME280;5450;42.994;23.372;2024-03-06T02:57:38;96238.88;;;6.46;100.00
10796;BME280;5450;42.994;23.372;2024-03-06T03:00:05;96238.34;;;6.42;100.00
10796;BME280;5450;42.994;23.372;2024-03-06T03:02:38;96234.63;;;6.45;100.00
10796;BME280;5450;42.994;23.372;2024-03-06T03:05:05;96241.09;;;6.41;100.00
10796;BME280;5450;42.994;23.372;2024-03-06T03:07:31;96240.81;;;6.44;100.00
10796;BME280;5450;42.994;23.372;2024-03-06T03:09:58;96232.28;;;6.42;100.00
10796;BME280;5450;42.994;23.372;2024-03-06T03:12:26;96233.97;;;6.43;100.00
10796;BME280;5450;42.994;23.372;2024-03-06T03:14:53;96237.81;;;6.39;100.00
10796;BME280;5450;42.994;23.372;2024-03-06T03:17:19;96242.88;;;6.40;100.00
10796;BME280;5450;42.994;23.372;2024-03-06T03:19:46;96234.81;;;6.34;100.00
10796;BME280;5450;42.994;23.372;2024-03-06T03:22:13;96242.06;;;6.40;100.00
10796;BME280;5450;42.994;23.372;2024-03-06T03:24:41;96243.03;;;6.39;100.00
10796;BME280;5450;42.994;23.372;2024-03-06T03:27:08;96243.31;;;6.36;100.00
10796;BME280;5450;42.994;23.372;2024-03-06T03:29:36;96242.22;;;6.38;100.00
10796;BME280;5450;42.994;23.372;2024-03-06T03:32:03;96250.72;;;6.40;100.00
10796;BME280;5450;42.994;23.372;2024-03-06T03:34:29;96243.03;;;6.39;100.00
10796;BME280;5450;42.994;23.372;2024-03-06T03:36:56;96249.22;;;6.38;100.00
10796;BME280;5450;42.994;23.372;2024-03-06T03:39:23;96247.13;;;6.41;100.00
10796;BME280;5450;42.994;23.372;2024-03-06T03:41:49;96247.44;;;6.38;100.00
10796;BME280;5450;42.994;23.372;2024-03-06T03:44:16;96249.22;;;6.38;100.00
10796;BME280;5450;42.994;23.372;2024-03-06T03:46:45;96255.69;;;6.34;100.00
10796;BME280;5450;42.994;23.372;2024-03-06T03:49:12;96262.53;;;6.35;100.00
10796;BME280;5450;42.994;23.372;2024-03-06T03:51:39;96257.88;;;6.29;100.00
10796;BME280;5450;42.994;23.372;2024-03-06T03:54:07;96263.56;;;6.15;100.00
10796;BME280;5450;42.994;23.372;2024-03-06T03:56:33;96255.19;;;6.11;100.00
10796;BME280;5450;42.994;23.372;2024-03-06T03:59:00;96263.69;;;6.13;100.00
10796;BME280;5450;42.994;23.372;2024-03-06T04:01:27;96263.16;;;6.09;100.00
10796;BME280;5450;42.994;23.372;2024-03-06T04:03:55;96269.47;;;6.17;100.00
10796;BME280;5450;42.994;23.372;2024-03-06T04:06:22;96266.31;;;6.13;100.00
10796;BME280;5450;42.994;23.372;2024-03-06T04:08:50;96270.84;;;6.11;100.00
10796;BME280;5450;42.994;23.372;2024-03-06T04:11:16;96270.16;;;6.19;100.00
10796;BME280;5450;42.994;23.372;2024-03-06T04:13:45;96277.56;;;6.13;100.00
10796;BME280;5450;42.994;23.372;2024-03-06T04:16:15;96269.22;;;6.10;100.00
10796;BME280;5450;42.994;23.372;2024-03-06T04:18:42;96283.63;;;6.04;100.00
10796;BME280;5450;42.994;23.372;2024-03-06T04:21:10;96278.13;;;6.07;100.00
10796;BME280;5450;42.994;23.372;2024-03-06T04:23:36;96290.06;;;6.10;100.00
10796;BME280;5450;42.994;23.372;2024-03-06T04:26:03;96288.28;;;6.10;100.00
10796;BME280;5450;42.994;23.372;2024-03-06T04:28:31;96292.53;;;6.11;100.00
10796;BME280;5450;42.994;23.372;2024-03-06T04:30:57;96297.47;;;6.15;100.00
10796;BME280;5450;42.994;23.372;2024-03-06T04:33:24;96295.16;;;6.11;100.00
10796;BME280;5450;42.994;23.372;2024-03-06T04:35:51;96298.31;;;6.05;100.00
10796;BME280;5450;42.994;23.372;2024-03-06T04:38:19;96301.59;;;6.07;100.00
10796;BME280;5450;42.994;23.372;2024-03-06T04:40:46;96296.13;;;6.10;100.00
10796;BME280;5450;42.994;23.372;2024-03-06T04:43:12;96309.84;;;6.13;100.00
10796;BME280;5450;42.994;23.372;2024-03-06T04:45:39;96296.13;;;6.10;100.00
10796;BME280;5450;42.994;23.372;2024-03-06T04:48:06;96304.91;;;6.09;100.00
10796;BME280;5450;42.994;23.372;2024-03-06T04:50:35;96304.63;;;6.13;100.00
10796;BME280;5450;42.994;23.372;2024-03-06T04:53:01;96308.47;;;6.08;100.00
10796;BME280;5450;42.994;23.372;2024-03-06T04:55:32;96307.25;;;6.13;100.00
10796;BME280;5450;42.994;23.372;2024-03-06T04:58:02;96307.25;;;6.13;100.00
10796;BME280;5450;42.994;23.372;2024-03-06T05:00:28;96301.03;;;6.13;100.00
10796;BME280;5450;42.994;23.372;2024-03-06T05:02:55;96312.84;;;6.18;100.00
10796;BME280;5450;42.994;23.372;2024-03-06T05:05:22;96310.13;;;6.09;100.00
10796;BME280;5450;42.994;23.372;2024-03-06T05:07:50;96305.16;;;6.06;100.00
10796;BME280;5450;42.994;23.372;2024-03-06T05:10:17;96307.09;;;6.04;100.00
10796;BME280;5450;42.994;23.372;2024-03-06T05:12:46;96307.38;;;6.01;100.00
10796;BME280;5450;42.994;23.372;2024-03-06T05:15:13;96306.81;;;5.98;100.00
10796;BME280;5450;42.994;23.372;2024-03-06T05:17:40;96318.09;;;5.98;100.00
10796;BME280;5450;42.994;23.372;2024-03-06T05:20:07;96319.75;;;5.99;100.00
10796;BME280;5450;42.994;23.372;2024-03-06T05:22:36;96323.03;;;6.01;100.00
10796;BME280;5450;42.994;23.372;2024-03-06T05:25:03;96322.75;;;6.04;100.00
10796;BME280;5450;42.994;23.372;2024-03-06T05:27:31;96323.00;;;6.11;100.00
10796;BME280;5450;42.994;23.372;2024-03-06T05:30:01;96332.34;;;6.13;100.00
10796;BME280;5450;42.994;23.372;2024-03-06T05:32:30;96324.81;;;6.10;100.00
10796;BME280;5450;42.994;23.372;2024-03-06T05:34:57;96335.94;;;6.13;100.00
10796;BME280;5450;42.994;23.372;2024-03-06T05:37:24;96335.50;;;6.07;100.00
10796;BME280;5450;42.994;23.372;2024-03-06T05:39:51;96339.38;;;6.03;100.00
10796;BME280;5450;42.994;23.372;2024-03-06T05:42:19;96340.88;;;5.96;100.00
10796;BME280;5450;42.994;23.372;2024-03-06T05:44:51;96346.34;;;5.93;100.00
10796;BME280;5450;42.994;23.372;2024-03-06T05:47:21;96341.69;;;5.97;100.00
10796;BME280;5450;42.994;23.372;2024-03-06T05:49:47;96347.75;;;5.97;100.00
10796;BME280;5450;42.994;23.372;2024-03-06T05:52:14;96343.22;;;5.99;100.00
10796;BME280;5450;42.994;23.372;2024-03-06T05:54:41;96346.91;;;5.97;100.00
10796;BME280;5450;42.994;23.372;2024-03-06T05:57:07;96350.34;;;5.97;100.00
10796;BME280;5450;42.994;23.372;2024-03-06T05:59:34;96338.94;;;5.98;100.00
10796;BME280;5450;42.994;23.372;2024-03-06T06:02:03;96343.34;;;5.98;100.00
10796;BME280;5450;42.994;23.372;2024-03-06T06:04:32;96347.19;;;5.94;100.00
10796;BME280;5450;42.994;23.372;2024-03-06T06:06:58;96345.13;;;5.97;100.00
10796;BME280;5450;42.994;23.372;2024-03-06T06:09:25;96342.78;;;5.94;100.00
10796;BME280;5450;42.994;23.372;2024-03-06T06:11:53;96336.06;;;5.92;100.00
10796;BME280;5450;42.994;23.372;2024-03-06T06:14:20;96349.41;;;5.89;100.00
10796;BME280;5450;42.994;23.372;2024-03-06T06:16:47;96343.06;;;5.91;100.00
10796;BME280;5450;42.994;23.372;2024-03-06T06:19:14;96344.03;;;5.90;100.00
10796;BME280;5450;42.994;23.372;2024-03-06T06:21:42;96329.63;;;5.86;100.00
10796;BME280;5450;42.994;23.372;2024-03-06T06:24:08;96344.31;;;5.87;100.00
10796;BME280;5450;42.994;23.372;2024-03-06T06:26:36;96337.84;;;5.82;100.00
10796;BME280;5450;42.994;23.372;2024-03-06T06:29:05;96342.91;;;5.83;100.00
10796;BME280;5450;42.994;23.372;2024-03-06T06:31:33;96337.00;;;5.81;100.00
10796;BME280;5450;42.994;23.372;2024-03-06T06:36:59;96339.50;;;5.92;100.00
10796;BME280;5450;42.994;23.372;2024-03-06T06:39:34;96346.34;;;5.93;100.00
10796;BME280;5450;42.994;23.372;2024-03-06T06:42:01;96338.94;;;5.98;100.00
10796;BME280;5450;42.994;23.372;2024-03-06T06:44:30;96333.31;;;6.03;100.00
10796;BME280;5450;42.994;23.372;2024-03-06T06:46:57;96335.66;;;6.06;100.00
10796;BME280;5450;42.994;23.372;2024-03-06T06:49:27;96340.16;;;6.13;100.00
10796;BME280;5450;42.994;23.372;2024-03-06T06:51:54;96343.88;;;6.21;100.00
10796;BME280;5450;42.994;23.372;2024-03-06T06:54:22;96340.28;;;6.22;100.00
10796;BME280;5450;42.994;23.372;2024-03-06T06:56:48;96342.22;;;6.20;100.00
10796;BME280;5450;42.994;23.372;2024-03-06T06:59:16;96349.78;;;6.23;100.00
10796;BME280;5450;42.994;23.372;2024-03-06T07:01:45;96344.69;;;6.21;100.00
10796;BME280;5450;42.994;23.372;2024-03-06T07:04:12;96351.97;;;6.27;100.00
10796;BME280;5450;42.994;23.372;2024-03-06T07:06:41;96349.63;;;6.24;100.00
10796;BME280;5450;42.994;23.372;2024-03-06T07:09:08;96351.13;;;6.27;100.00
10796;BME280;5450;42.994;23.372;2024-03-06T07:11:37;96344.13;;;6.27;100.00
10796;BME280;5450;42.994;23.372;2024-03-06T07:14:05;96349.88;;;6.31;100.00
10796;BME280;5450;42.994;23.372;2024-03-06T07:16:33;96355.66;;;6.34;100.00
10796;BME280;5450;42.994;23.372;2024-03-06T07:19:00;96351.25;;;6.44;100.00
10796;BME280;5450;42.994;23.372;2024-03-06T07:21:27;96341.47;;;6.56;100.00
10796;BME280;5450;42.994;23.372;2024-03-06T07:23:54;96345.28;;;6.71;100.00
10796;BME280;5450;42.994;23.372;2024-03-06T07:26:21;96343.84;;;6.86;100.00
10796;BME280;5450;42.994;23.372;2024-03-06T07:31:53;96343.13;;;7.21;100.00
10796;BME280;5450;42.994;23.372;2024-03-06T07:34:20;96347.03;;;7.34;100.00
10796;BME280;5450;42.994;23.372;2024-03-06T07:39:49;96333.63;;;7.64;100.00
10796;BME280;5450;42.994;23.372;2024-03-06T07:45:19;96323.25;;;7.90;100.00
10796;BME280;5450;42.994;23.372;2024-03-06T07:47:50;96322.09;;;7.93;100.00
10796;BME280;5450;42.994;23.372;2024-03-06T07:50:23;96316.63;;;8.04;100.00
10796;BME280;5450;42.994;23.372;2024-03-06T07:55:58;96321.13;;;8.11;100.00
10796;BME280;5450;42.994;23.372;2024-03-06T08:01:23;96320.31;;;8.11;100.00
10796;BME280;5450;42.994;23.372;2024-03-06T08:04:01;96318.06;;;8.16;100.00
10796;BME280;5450;42.994;23.372;2024-03-06T08:09:29;96318.56;;;8.19;100.00
10796;BME280;5450;42.994;23.372;2024-03-06T08:11:55;96321.44;;;8.26;100.00
10796;BME280;5450;42.994;23.372;2024-03-06T08:17:20;96320.97;;;8.56;100.00
10796;BME280;5450;42.994;23.372;2024-03-06T08:19:48;96319.47;;;8.54;100.00
10796;BME280;5450;42.994;23.372;2024-03-06T08:22:16;96325.19;;;8.49;100.00
10796;BME280;5450;42.994;23.372;2024-03-06T08:27:51;96315.44;;;8.59;100.00
10796;BME280;5450;42.994;23.372;2024-03-06T08:30:18;96312.88;;;8.67;100.00
10796;BME280;5450;42.994;23.372;2024-03-06T08:32:50;96307.72;;;8.83;100.00
10796;BME280;5450;42.994;23.372;2024-03-06T08:41:27;96310.13;;;9.10;100.00
10796;BME280;5450;42.994;23.372;2024-03-06T08:44:04;96307.22;;;9.22;100.00
10796;BME280;5450;42.994;23.372;2024-03-06T08:49:33;96315.75;;;9.24;100.00
10796;BME280;5450;42.994;23.372;2024-03-06T08:52:05;96310.19;;;9.27;100.00
10796;BME280;5450;42.994;23.372;2024-03-06T08:54:32;96311.03;;;9.35;100.00
10796;BME280;5450;42.994;23.372;2024-03-06T08:57:05;96316.59;;;9.40;100.00
10796;BME280;5450;42.994;23.372;2024-03-06T08:59:33;96307.94;;;9.48;100.00
10796;BME280;5450;42.994;23.372;2024-03-06T09:02:12;96312.53;;;9.54;100.00
10796;BME280;5450;42.994;23.372;2024-03-06T09:04:38;96308.31;;;9.61;100.00
10796;BME280;5450;42.994;23.372;2024-03-06T09:13:15;96313.56;;;9.77;100.00
10796;BME280;5450;42.994;23.372;2024-03-06T09:31:25;96301.81;;;10.21;100.00
10796;BME280;5450;42.994;23.372;2024-03-06T09:37:08;96295.38;;;10.40;100.00
10796;BME280;5450;42.994;23.372;2024-03-06T09:42:47;96299.13;;;10.61;100.00
10796;BME280;5450;42.994;23.372;2024-03-06T09:45:23;96295.81;;;10.76;100.00
10796;BME280;5450;42.994;23.372;2024-03-06T09:47:57;96293.47;;;10.89;100.00
10796;BME280;5450;42.994;23.372;2024-03-06T09:56:24;96277.72;;;11.50;100.00
10796;BME280;5450;42.994;23.372;2024-03-06T09:59:00;96265.28;;;11.75;100.00
10796;BME280;5450;42.994;23.372;2024-03-06T10:01:32;96265.28;;;11.97;100.00
10796;BME280;5450;42.994;23.372;2024-03-06T10:04:01;96266.47;;;12.09;100.00
10796;BME280;5450;42.994;23.372;2024-03-06T10:09:56;96265.03;;;12.44;100.00
10796;BME280;5450;42.994;23.372;2024-03-06T10:15:38;96249.31;;;12.65;100.00
10796;BME280;5450;42.994;23.372;2024-03-06T10:24:33;96246.06;;;13.07;100.00
10796;BME280;5450;42.994;23.372;2024-03-06T10:39:41;96243.19;;;12.36;100.00
10796;BME280;5450;42.994;23.372;2024-03-06T10:48:18;96235.53;;;12.26;100.00
10796;BME280;5450;42.994;23.372;2024-03-06T10:54:00;96235.91;;;12.23;100.00
10796;BME280;5450;42.994;23.372;2024-03-06T10:56:30;96232.75;;;12.28;100.00
10796;BME280;5450;42.994;23.372;2024-03-06T11:02:14;96227.59;;;12.34;100.00
10796;BME280;5450;42.994;23.372;2024-03-06T11:04:43;96226.84;;;12.40;100.00
10796;BME280;5450;42.994;23.372;2024-03-06T11:10:31;96223.63;;;12.15;100.00
10796;BME280;5450;42.994;23.372;2024-03-06T11:19:31;96223.06;;;12.05;100.00
10796;BME280;5450;42.994;23.372;2024-03-06T11:35:00;96206.03;;;11.48;100.00
10796;BME280;5450;42.994;23.372;2024-03-06T11:43:59;96211.50;;;11.24;100.00
10796;BME280;5450;42.994;23.372;2024-03-06T11:52:59;96203.88;;;11.29;100.00
10796;BME280;5450;42.994;23.372;2024-03-06T12:05:13;96198.16;;;11.48;100.00
10796;BME280;5450;42.994;23.372;2024-03-06T12:10:36;96197.91;;;11.35;100.00
10796;BME280;5450;42.994;23.372;2024-03-06T12:13:04;96195.47;;;11.33;100.00
10796;BME280;5450;42.994;23.372;2024-03-06T12:18:46;96193.66;;;11.34;100.00
10796;BME280;5450;42.994;23.372;2024-03-06T12:27:46;96182.13;;;11.35;100.00
10796;BME280;5450;42.994;23.372;2024-03-06T12:33:31;96171.91;;;11.40;100.00
10796;BME280;5450;42.994;23.372;2024-03-06T13:01:00;96156.31;;;12.13;100.00
10796;BME280;5450;42.994;23.372;2024-03-06T13:03:30;96152.81;;;12.21;100.00
10796;BME280;5450;42.994;23.372;2024-03-06T13:06:02;96161.63;;;12.28;100.00
10796;BME280;5450;42.994;23.372;2024-03-06T13:15:01;96149.78;;;12.53;100.00
10796;BME280;5450;42.994;23.372;2024-03-06T13:20:45;96140.41;;;12.65;100.00
10796;BME280;5450;42.994;23.372;2024-03-06T13:23:12;96140.16;;;12.60;100.00
10796;BME280;5450;42.994;23.372;2024-03-06T13:57:05;96121.97;;;12.65;100.00
10796;BME280;5450;42.994;23.372;2024-03-06T14:05:17;96118.88;;;12.61;100.00
10796;BME280;5450;42.994;23.372;2024-03-06T14:07:51;96115.69;;;12.66;100.00
10796;BME280;5450;42.994;23.372;2024-03-06T14:10:20;96111.69;;;12.70;100.00
10796;BME280;5450;42.994;23.372;2024-03-06T14:15:44;96113.69;;;12.68;100.00
10796;BME280;5450;42.994;23.372;2024-03-06T14:18:13;96113.25;;;12.64;100.00
10796;BME280;5450;42.994;23.372;2024-03-06T14:20:40;96119.06;;;12.60;100.00
10796;BME280;5450;42.994;23.372;2024-03-06T14:23:08;96119.72;;;12.62;100.00
10796;BME280;5450;42.994;23.372;2024-03-06T14:32:07;96113.09;;;12.51;100.00
10796;BME280;5450;42.994;23.372;2024-03-06T14:50:29;96131.97;;;12.11;100.00
10796;BME280;5450;42.994;23.372;2024-03-06T14:52:55;96130.06;;;12.05;100.00
10796;BME280;5450;42.994;23.372;2024-03-06T14:58:14;96133.25;;;12.00;100.00
10796;BME280;5450;42.994;23.372;2024-03-06T15:00:40;96135.59;;;11.95;100.00
10796;BME280;5450;42.994;23.372;2024-03-06T15:03:07;96135.84;;;11.71;100.00
10796;BME280;5450;42.994;23.372;2024-03-06T15:05:37;96138.81;;;11.68;100.00
10796;BME280;5450;42.994;23.372;2024-03-06T15:08:04;96135.94;;;11.55;100.00
10796;BME280;5450;42.994;23.372;2024-03-06T15:10:31;96128.94;;;11.48;100.00
10796;BME280;5450;42.994;23.372;2024-03-06T15:12:58;96134.22;;;11.48;100.00
10796;BME280;5450;42.994;23.372;2024-03-06T15:15:24;96136.44;;;11.36;100.00
10796;BME280;5450;42.994;23.372;2024-03-06T15:17:51;96137.41;;;11.35;100.00
10796;BME280;5450;42.994;23.372;2024-03-06T15:20:18;96142.84;;;11.33;100.00
10796;BME280;5450;42.994;23.372;2024-03-06T15:22:47;96153.84;;;11.37;100.00
10796;BME280;5450;42.994;23.372;2024-03-06T15:25:13;96154.28;;;11.26;100.00
10796;BME280;5450;42.994;23.372;2024-03-06T15:27:40;96147.34;;;11.25;100.00
10796;BME280;5450;42.994;23.372;2024-03-06T15:30:08;96148.28;;;11.09;100.00
10796;BME280;5450;42.994;23.372;2024-03-06T15:32:36;96157.69;;;11.04;100.00
10796;BME280;5450;42.994;23.372;2024-03-06T15:35:03;96154.03;;;11.13;100.00
10796;BME280;5450;42.994;23.372;2024-03-06T15:37:30;96159.28;;;11.13;100.00
10796;BME280;5450;42.994;23.372;2024-03-06T15:39:59;96163.59;;;11.06;100.00
10796;BME280;5450;42.994;23.372;2024-03-06T15:42:28;96164.25;;;11.08;100.00
10796;BME280;5450;42.994;23.372;2024-03-06T15:45:00;96159.69;;;11.02;100.00
10796;BME280;5450;42.994;23.372;2024-03-06T15:47:26;96166.56;;;11.03;100.00
10796;BME280;5450;42.994;23.372;2024-03-06T15:49:54;96177.44;;;11.00;100.00
10796;BME280;5450;42.994;23.372;2024-03-06T15:52:21;96181.88;;;10.99;100.00
10796;BME280;5450;42.994;23.372;2024-03-06T15:54:49;96179.06;;;11.01;100.00
10796;BME280;5450;42.994;23.372;2024-03-06T15:57:19;96172.94;;;10.78;100.00
10796;BME280;5450;42.994;23.372;2024-03-06T15:59:47;96182.47;;;10.79;100.00
10796;BME280;5450;42.994;23.372;2024-03-06T16:02:17;96178.16;;;10.86;100.00
10796;BME280;5450;42.994;23.372;2024-03-06T16:04:44;96182.06;;;10.90;100.00
10796;BME280;5450;42.994;23.372;2024-03-06T16:07:13;96191.31;;;10.86;100.00
10796;BME280;5450;42.994;23.372;2024-03-06T16:09:41;96188.28;;;10.97;100.00
10796;BME280;5450;42.994;23.372;2024-03-06T16:12:07;96192.84;;;11.03;100.00
10796;BME280;5450;42.994;23.372;2024-03-06T16:14:36;96195.31;;;11.04;100.00
10796;BME280;5450;42.994;23.372;2024-03-06T16:17:06;96192.03;;;11.02;100.00
10796;BME280;5450;42.994;23.372;2024-03-06T16:19:32;96190.22;;;11.03;100.00
10796;BME280;5450;42.994;23.372;2024-03-06T16:22:00;96193.16;;;11.08;100.00
10796;BME280;5450;42.994;23.372;2024-03-06T16:24:28;96195.09;;;11.14;100.00
10796;BME280;5450;42.994;23.372;2024-03-06T16:26:56;96196.44;;;11.10;100.00
10796;BME280;5450;42.994;23.372;2024-03-06T16:29:22;96198.81;;;10.97;100.00
10796;BME280;5450;42.994;23.372;2024-03-06T16:31:53;96196.22;;;10.89;100.00
10796;BME280;5450;42.994;23.372;2024-03-06T16:34:20;96192.94;;;10.87;100.00
10796;BME280;5450;42.994;23.372;2024-03-06T16:36:49;96186.22;;;10.84;100.00
10796;BME280;5450;42.994;23.372;2024-03-06T16:39:16;96197.38;;;10.86;100.00
10796;BME280;5450;42.994;23.372;2024-03-06T16:41:43;96189.97;;;10.90;100.00
10796;BME280;5450;42.994;23.372;2024-03-06T16:44:10;96192.25;;;10.93;100.00
10796;BME280;5450;42.994;23.372;2024-03-06T16:46:37;96202.91;;;10.99;100.00
10796;BME280;5450;42.994;23.372;2024-03-06T16:49:09;96202.06;;;10.99;100.00
10796;BME280;5450;42.994;23.372;2024-03-06T16:51:39;96201.44;;;10.97;100.00
10796;BME280;5450;42.994;23.372;2024-03-06T16:54:06;96210.59;;;11.01;100.00
10796;BME280;5450;42.994;23.372;2024-03-06T16:56:33;96208.16;;;10.99;100.00
10796;BME280;5450;42.994;23.372;2024-03-06T16:59:00;96212.97;;;10.96;100.00
10796;BME280;5450;42.994;23.372;2024-03-06T17:01:34;96206.25;;;10.85;100.00
10796;BME280;5450;42.994;23.372;2024-03-06T17:04:01;96209.47;;;10.64;100.00
10796;BME280;5450;42.994;23.372;2024-03-06T17:06:33;96216.34;;;10.65;100.00
10796;BME280;5450;42.994;23.372;2024-03-06T17:09:01;96215.03;;;10.61;100.00
10796;BME280;5450;42.994;23.372;2024-03-06T17:11:30;96222.59;;;10.64;100.00
10796;BME280;5450;42.994;23.372;2024-03-06T17:14:00;96221.13;;;10.62;100.00
10796;BME280;5450;42.994;23.372;2024-03-06T17:16:27;96227.25;;;10.46;100.00
10796;BME280;5450;42.994;23.372;2024-03-06T17:18:54;96224.66;;;10.38;100.00
10796;BME280;5450;42.994;23.372;2024-03-06T17:21:20;96223.81;;;10.38;100.00
10796;BME280;5450;42.994;23.372;2024-03-06T17:23:50;96223.22;;;10.20;100.00
10796;BME280;5450;42.994;23.372;2024-03-06T17:26:19;96231.53;;;10.07;100.00
10796;BME280;5450;42.994;23.372;2024-03-06T17:28:45;96224.69;;;10.14;100.00
10796;BME280;5450;42.994;23.372;2024-03-06T17:31:18;96228.13;;;10.15;100.00